CheckWX is a tool to help pilots better visualize weather data.  It is not intended as a substitute for an official pre-flight weather briefing.

05:52:39 UTC

EDDK METAR
Cologne Bonn Airport
Cologne, Germany
Current

33 mins ago

EDDK 200520Z 14004KT CAVOK 03/00 Q1022 NOSIG
Observed
Feb-20 @ 05:20 UTC
Wind
  • 140° at 4 KTS
Visibility
10,000+ meters
Flight Rules
VFR
Cloud Levels
  • Clear skies
Temperature
C / 37°F
Dewpoint
C / 32°F
Humidity
81%
Altimeter
30.18" Hg
Pressure
1021.92 hPa
Previous

1 hour ago

EDDK 200450Z 13003KT 090V160 CAVOK 03/00 Q1022 NOSIG
Observed
Feb-20 @ 04:50 UTC
Wind
  • 130° at 3 KTS
Visibility
10,000+ meters
Flight Rules
VFR
Cloud Levels
  • Clear skies
Temperature
C / 37°F
Dewpoint
C / 32°F
Humidity
81%
Altimeter
30.18" Hg
Pressure
1021.92 hPa
Previous

2 hours ago

EDDK 200420Z 13003KT 080V150 CAVOK 03/00 Q1022 NOSIG
Observed
Feb-20 @ 04:20 UTC
Wind
  • 130° at 3 KTS
Visibility
10,000+ meters
Flight Rules
VFR
Cloud Levels
  • Clear skies
Temperature
C / 37°F
Dewpoint
C / 32°F
Humidity
81%
Altimeter
30.18" Hg
Pressure
1021.92 hPa